sensor_id;sensor_type;location;lat;lon;timestamp;pressure;altitude;pressure_sealevel;temperature;humidity
70458;BME280;57919;56.194;95.716;2023-02-23T00:01:12;100562.25;;;-17.77;64.73
70458;BME280;57919;56.194;95.716;2023-02-23T00:11:15;100554.75;;;-17.90;64.83
70458;BME280;57919;56.194;95.716;2023-02-23T00:21:20;100560.09;;;-18.05;64.64
70458;BME280;57919;56.194;95.716;2023-02-23T00:31:23;100568.22;;;-18.15;64.18
70458;BME280;57919;56.194;95.716;2023-02-23T00:41:27;100580.09;;;-18.19;63.95
70458;BME280;57919;56.194;95.716;2023-02-23T00:51:30;100559.66;;;-18.32;64.36
70458;BME280;57919;56.194;95.716;2023-02-23T01:01:33;100600.06;;;-18.15;64.29
70458;BME280;57919;56.194;95.716;2023-02-23T01:11:35;100603.69;;;-18.11;64.02
70458;BME280;57919;56.194;95.716;2023-02-23T01:21:40;100606.09;;;-17.96;64.03
70458;BME280;57919;56.194;95.716;2023-02-23T01:31:45;100605.19;;;-17.60;64.16
70458;BME280;57919;56.194;95.716;2023-02-23T01:41:51;100602.69;;;-17.20;64.46
70458;BME280;57919;56.194;95.716;2023-02-23T01:52:01;100569.78;;;-16.84;64.38
70458;BME280;57919;56.194;95.716;2023-02-23T02:02:04;100574.50;;;-16.10;65.52
70458;BME280;57919;56.194;95.716;2023-02-23T02:12:10;100572.78;;;-15.41;64.23
70458;BME280;57919;56.194;95.716;2023-02-23T02:33:09;100555.13;;;-13.70;64.54
70458;BME280;57919;56.194;95.716;2023-02-23T02:43:00;100544.53;;;-12.50;63.54
70458;BME280;57919;56.194;95.716;2023-02-23T02:53:13;100524.38;;;-11.42;62.53
70458;BME280;57919;56.194;95.716;2023-02-23T03:03:36;100514.59;;;-10.61;61.65
70458;BME280;57919;56.194;95.716;2023-02-23T03:25:03;100482.63;;;-9.17;57.56
70458;BME280;57919;56.194;95.716;2023-02-23T03:35:50;100489.09;;;-8.83;57.38
70458;BME280;57919;56.194;95.716;2023-02-23T04:36:20;100423.69;;;-6.29;54.66
70458;BME280;57919;56.194;95.716;2023-02-23T04:46:22;100398.25;;;-6.34;53.90
70458;BME280;57919;56.194;95.716;2023-02-23T04:56:24;100399.13;;;-6.40;54.53
70458;BME280;57919;56.194;95.716;2023-02-23T05:06:26;100385.91;;;-6.11;54.98
70458;BME280;57919;56.194;95.716;2023-02-23T05:16:28;100376.09;;;-5.68;53.81
70458;BME280;57919;56.194;95.716;2023-02-23T05:26:30;100370.09;;;-6.08;54.79
70458;BME280;57919;56.194;95.716;2023-02-23T05:36:32;100362.31;;;-6.72;54.95
70458;BME280;57919;56.194;95.716;2023-02-23T05:46:34;100345.59;;;-6.36;55.71
70458;BME280;57919;56.194;95.716;2023-02-23T05:56:37;100325.06;;;-5.53;55.48
70458;BME280;57919;56.194;95.716;2023-02-23T06:06:39;100315.25;;;-5.33;54.63
70458;BME280;57919;56.194;95.716;2023-02-23T06:16:41;100306.22;;;-5.00;54.01
70458;BME280;57919;56.194;95.716;2023-02-23T06:26:45;100275.59;;;-5.17;54.60
70458;BME280;57919;56.194;95.716;2023-02-23T06:36:48;100274.53;;;-4.94;55.22
70458;BME280;57919;56.194;95.716;2023-02-23T06:46:50;100253.34;;;-4.84;54.29
70458;BME280;57919;56.194;95.716;2023-02-23T06:56:51;100251.38;;;-4.64;55.34
70458;BME280;57919;56.194;95.716;2023-02-23T07:06:57;100249.75;;;-4.77;54.88
70458;BME280;57919;56.194;95.716;2023-02-23T07:16:59;100242.88;;;-4.94;56.19
70458;BME280;57919;56.194;95.716;2023-02-23T07:27:00;100238.56;;;-5.05;56.40
70458;BME280;57919;56.194;95.716;2023-02-23T07:37:02;100228.94;;;-5.08;56.09
70458;BME280;57919;56.194;95.716;2023-02-23T07:47:05;100219.97;;;-4.92;57.72
70458;BME280;57919;56.194;95.716;2023-02-23T07:57:07;100203.91;;;-4.67;57.29
70458;BME280;57919;56.194;95.716;2023-02-23T08:07:09;100185.22;;;-4.50;56.06
70458;BME280;57919;56.194;95.716;2023-02-23T08:17:11;100181.88;;;-4.65;57.53
70458;BME280;57919;56.194;95.716;2023-02-23T08:27:13;100167.47;;;-4.38;57.83
70458;BME280;57919;56.194;95.716;2023-02-23T08:37:15;100169.28;;;-4.43;56.95
70458;BME280;57919;56.194;95.716;2023-02-23T08:47:17;100152.97;;;-4.75;58.23
70458;BME280;57919;56.194;95.716;2023-02-23T08:57:23;100167.91;;;-4.74;57.37
70458;BME280;57919;56.194;95.716;2023-02-23T09:07:27;100162.91;;;-4.99;58.18
70458;BME280;57919;56.194;95.716;2023-02-23T09:17:28;100166.59;;;-5.18;58.05
70458;BME280;57919;56.194;95.716;2023-02-23T09:27:30;100172.75;;;-5.16;58.46
70458;BME280;57919;56.194;95.716;2023-02-23T09:37:32;100150.00;;;-5.29;58.49
70458;BME280;57919;56.194;95.716;2023-02-23T09:48:16;100149.06;;;-5.24;58.86
70458;BME280;57919;56.194;95.716;2023-02-23T09:58:25;100143.84;;;-5.28;58.33
70458;BME280;57919;56.194;95.716;2023-02-23T10:28:57;100131.13;;;-5.80;58.01
70458;BME280;57919;56.194;95.716;2023-02-23T10:39:02;100139.06;;;-5.86;57.97
70458;BME280;57919;56.194;95.716;2023-02-23T10:49:06;100139.19;;;-6.01;58.41
70458;BME280;57919;56.194;95.716;2023-02-23T10:59:18;100128.78;;;-6.18;58.23
70458;BME280;57919;56.194;95.716;2023-02-23T11:09:27;100118.44;;;-6.48;58.75
70458;BME280;57919;56.194;95.716;2023-02-23T11:19:33;100118.56;;;-6.77;58.23
70458;BME280;57919;56.194;95.716;2023-02-23T11:29:42;100121.31;;;-7.17;59.25
70458;BME280;57919;56.194;95.716;2023-02-23T11:39:55;100125.75;;;-7.59;59.16
70458;BME280;57919;56.194;95.716;2023-02-23T11:49:58;100131.91;;;-7.90;58.95
70458;BME280;57919;56.194;95.716;2023-02-23T12:00:10;100127.47;;;-8.26;59.28
70458;BME280;57919;56.194;95.716;2023-02-23T12:10:23;100123.94;;;-8.57;59.25
70458;BME280;57919;56.194;95.716;2023-02-23T12:20:36;100112.50;;;-8.81;59.88
70458;BME280;57919;56.194;95.716;2023-02-23T12:30:50;100108.94;;;-8.95;60.40
70458;BME280;57919;56.194;95.716;2023-02-23T12:41:04;100107.94;;;-9.20;59.86
70458;BME280;57919;56.194;95.716;2023-02-23T12:51:24;100097.25;;;-9.56;60.14
70458;BME280;57919;56.194;95.716;2023-02-23T13:01:38;100113.53;;;-9.95;60.55
70458;BME280;57919;56.194;95.716;2023-02-23T13:21:53;100082.75;;;-10.30;60.76
70458;BME280;57919;56.194;95.716;2023-02-23T13:31:59;100062.56;;;-10.46;60.70
70458;BME280;57919;56.194;95.716;2023-02-23T13:52:37;100052.50;;;-10.93;60.99
70458;BME280;57919;56.194;95.716;2023-02-23T14:02:42;100064.38;;;-11.18;61.30
70458;BME280;57919;56.194;95.716;2023-02-23T14:33:49;100036.75;;;-11.70;61.32
70458;BME280;57919;56.194;95.716;2023-02-23T14:44:25;100032.09;;;-11.94;61.28
70458;BME280;57919;56.194;95.716;2023-02-23T15:04:30;100032.44;;;-12.27;62.07
70458;BME280;57919;56.194;95.716;2023-02-23T15:14:36;100022.63;;;-12.43;61.85
70458;BME280;57919;56.194;95.716;2023-02-23T15:24:46;100031.25;;;-12.47;61.84
70458;BME280;57919;56.194;95.716;2023-02-23T15:34:49;100025.88;;;-12.56;62.40
70458;BME280;57919;56.194;95.716;2023-02-23T15:44:58;100025.97;;;-12.52;62.04
70458;BME280;57919;56.194;95.716;2023-02-23T15:55:06;100026.63;;;-12.63;62.45
70458;BME280;57919;56.194;95.716;2023-02-23T16:05:22;100012.41;;;-12.82;61.86
70458;BME280;57919;56.194;95.716;2023-02-23T16:15:27;100013.97;;;-12.92;62.60
70458;BME280;57919;56.194;95.716;2023-02-23T16:25:31;100011.13;;;-13.06;62.95
70458;BME280;57919;56.194;95.716;2023-02-23T16:35:37;100004.88;;;-13.14;62.85
70458;BME280;57919;56.194;95.716;2023-02-23T16:45:42;99989.97;;;-13.24;62.33
70458;BME280;57919;56.194;95.716;2023-02-23T16:55:54;100002.13;;;-13.24;62.55
70458;BME280;57919;56.194;95.716;2023-02-23T17:06:01;100002.81;;;-13.33;62.98
70458;BME280;57919;56.194;95.716;2023-02-23T17:16:05;100000.00;;;-13.44;62.37
70458;BME280;57919;56.194;95.716;2023-02-23T17:26:09;99995.56;;;-13.49;62.75
70458;BME280;57919;56.194;95.716;2023-02-23T17:36:14;99988.47;;;-13.56;62.65
70458;BME280;57919;56.194;95.716;2023-02-23T17:46:17;100002.41;;;-13.53;62.50
70458;BME280;57919;56.194;95.716;2023-02-23T17:56:19;99998.66;;;-13.67;62.85
70458;BME280;57919;56.194;95.716;2023-02-23T18:06:21;100006.16;;;-13.81;63.13
70458;BME280;57919;56.194;95.716;2023-02-23T18:16:23;100006.03;;;-13.87;63.01
70458;BME280;57919;56.194;95.716;2023-02-23T18:26:24;100010.28;;;-13.90;63.36
70458;BME280;57919;56.194;95.716;2023-02-23T18:36:32;100010.03;;;-14.02;62.73
70458;BME280;57919;56.194;95.716;2023-02-23T18:46:37;100027.72;;;-14.24;63.10
70458;BME280;57919;56.194;95.716;2023-02-23T18:56:39;100026.13;;;-14.56;62.69
70458;BME280;57919;56.194;95.716;2023-02-23T19:06:43;100012.06;;;-14.64;63.67
70458;BME280;57919;56.194;95.716;2023-02-23T19:16:46;100022.56;;;-14.94;63.53
70458;BME280;57919;56.194;95.716;2023-02-23T19:26:49;100019.91;;;-14.96;63.90
70458;BME280;57919;56.194;95.716;2023-02-23T19:36:51;100018.75;;;-15.07;63.22
70458;BME280;57919;56.194;95.716;2023-02-23T19:46:53;100019.25;;;-15.20;63.72
70458;BME280;57919;56.194;95.716;2023-02-23T19:56:55;100028.41;;;-15.66;64.04
70458;BME280;57919;56.194;95.716;2023-02-23T20:06:56;100019.13;;;-15.58;63.50
70458;BME280;57919;56.194;95.716;2023-02-23T20:16:59;100012.22;;;-15.57;64.17
70458;BME280;57919;56.194;95.716;2023-02-23T20:27:00;99995.78;;;-15.58;63.91
70458;BME280;57919;56.194;95.716;2023-02-23T20:37:02;99995.72;;;-15.28;64.32
70458;BME280;57919;56.194;95.716;2023-02-23T20:47:04;99989.94;;;-15.18;63.63
70458;BME280;57919;56.194;95.716;2023-02-23T20:57:10;99991.34;;;-14.97;64.88
70458;BME280;57919;56.194;95.716;2023-02-23T21:07:11;99985.56;;;-14.86;64.74
70458;BME280;57919;56.194;95.716;2023-02-23T21:17:14;99972.94;;;-15.07;64.05
70458;BME280;57919;56.194;95.716;2023-02-23T21:27:16;99986.31;;;-15.56;65.00
70458;BME280;57919;56.194;95.716;2023-02-23T21:37:18;99971.81;;;-15.49;65.41
70458;BME280;57919;56.194;95.716;2023-02-23T21:47:20;99981.16;;;-15.23;67.71
70458;BME280;57919;56.194;95.716;2023-02-23T21:57:22;99955.97;;;-14.94;69.49
70458;BME280;57919;56.194;95.716;2023-02-23T22:07:26;99971.06;;;-14.78;68.75
70458;BME280;57919;56.194;95.716;2023-02-23T22:17:29;99956.47;;;-14.73;68.22
70458;BME280;57919;56.194;95.716;2023-02-23T22:27:33;99970.97;;;-14.82;68.74
70458;BME280;57919;56.194;95.716;2023-02-23T22:37:34;99959.72;;;-14.81;68.52
70458;BME280;57919;56.194;95.716;2023-02-23T22:47:40;99960.59;;;-14.81;68.33
70458;BME280;57919;56.194;95.716;2023-02-23T22:57:42;99969.88;;;-14.56;68.19
70458;BME280;57919;56.194;95.716;2023-02-23T23:07:44;99981.09;;;-14.57;67.56
70458;BME280;57919;56.194;95.716;2023-02-23T23:17:49;99970.59;;;-14.61;66.98
70458;BME280;57919;56.194;95.716;2023-02-23T23:27:51;99972.22;;;-14.66;66.88
70458;BME280;57919;56.194;95.716;2023-02-23T23:37:53;99982.38;;;-14.76;66.20
70458;BME280;57919;56.194;95.716;2023-02-23T23:47:55;99970.97;;;-14.82;65.94
70458;BME280;57919;56.194;95.716;2023-02-23T23:57:57;99964.44;;;-15.01;66.02
